createdAt,value
2023-01-22T00:01:23.193Z,35.41
2023-01-22T00:03:53.362Z,35.64
2023-01-22T00:06:23.891Z,35.43
2023-01-22T00:08:53.938Z,34.54
2023-01-22T00:11:22.004Z,33.74
2023-01-22T00:13:50.102Z,33.13
2023-01-22T00:16:18.463Z,32.70
2023-01-22T00:18:47.469Z,32.43
2023-01-22T00:21:15.180Z,32.45
2023-01-22T00:23:43.267Z,32.01
2023-01-22T00:26:15.919Z,31.68
2023-01-22T00:28:47.832Z,31.72
2023-01-22T00:31:17.045Z,31.92
2023-01-22T00:33:47.166Z,32.50
2023-01-22T00:36:19.986Z,33.21
2023-01-22T00:38:49.906Z,33.63
2023-01-22T00:41:20.028Z,33.93
2023-01-22T00:43:50.639Z,33.43
2023-01-22T00:46:23.867Z,33.34
2023-01-22T00:48:51.692Z,33.21
2023-01-22T00:51:20.441Z,33.07
2023-01-22T00:53:48.359Z,33.37
2023-01-22T00:56:16.944Z,33.94
2023-01-22T00:58:45.651Z,33.90
2023-01-22T01:01:15.844Z,33.75
2023-01-22T01:03:44.138Z,33.52
2023-01-22T01:06:22.174Z,33.13
2023-01-22T01:08:50.413Z,33.01
2023-01-22T01:11:25.350Z,32.90
2023-01-22T01:13:54.223Z,33.24
2023-01-22T01:16:30.009Z,33.83
2023-01-22T01:19:08.195Z,34.73
2023-01-22T01:21:37.198Z,34.66
2023-01-22T01:24:05.931Z,35.38
2023-01-22T01:26:35.498Z,35.18
2023-01-22T01:29:04.922Z,34.61
2023-01-22T01:31:33.301Z,34.39
2023-01-22T01:34:01.110Z,34.75
2023-01-22T01:36:47.739Z,36.13
2023-01-22T01:39:17.972Z,36.89
2023-01-22T01:41:45.922Z,36.74
2023-01-22T01:44:24.011Z,36.54
2023-01-22T01:46:57.906Z,37.69
2023-01-22T01:49:47.711Z,38.00
2023-01-22T01:52:17.569Z,38.59
2023-01-22T01:54:52.712Z,38.58
2023-01-22T01:57:29.356Z,39.25
2023-01-22T02:00:00.340Z,39.63
2023-01-22T02:02:28.071Z,38.67
2023-01-22T02:04:58.065Z,37.94
2023-01-22T02:07:26.054Z,38.22
2023-01-22T02:09:54.036Z,38.24
2023-01-22T02:12:22.780Z,38.31
2023-01-22T02:14:51.739Z,38.41
2023-01-22T02:17:22.313Z,37.88
2023-01-22T02:19:50.308Z,37.75
2023-01-22T02:22:23.889Z,37.02
2023-01-22T02:24:52.116Z,36.75
2023-01-22T02:27:20.543Z,37.56
2023-01-22T02:29:48.980Z,38.60
2023-01-22T02:32:16.948Z,39.11
2023-01-22T02:34:45.596Z,38.66
2023-01-22T02:37:13.747Z,38.33
2023-01-22T02:39:41.645Z,37.80
2023-01-22T02:42:11.199Z,37.26
2023-01-22T02:44:39.526Z,37.09
2023-01-22T02:47:07.873Z,36.98
2023-01-22T02:49:37.650Z,36.80
2023-01-22T02:52:05.593Z,36.51
2023-01-22T02:54:33.374Z,36.37
2023-01-22T02:57:01.068Z,36.84
2023-01-22T02:59:28.976Z,36.89
2023-01-22T03:01:58.365Z,36.68
2023-01-22T03:04:27.406Z,36.77
2023-01-22T03:06:55.163Z,36.05
2023-01-22T03:09:23.749Z,36.23
2023-01-22T03:11:51.906Z,36.70
2023-01-22T03:14:38.326Z,37.73
2023-01-22T03:17:26.314Z,37.09
2023-01-22T03:20:12.875Z,36.50
2023-01-22T03:22:40.946Z,35.78
2023-01-22T03:25:10.834Z,35.30
2023-01-22T03:27:58.657Z,35.17
2023-01-22T03:30:26.553Z,34.83
2023-01-22T03:32:54.290Z,34.10
2023-01-22T03:35:22.238Z,34.33
2023-01-22T03:37:50.024Z,34.40
2023-01-22T03:40:17.933Z,34.10
2023-01-22T03:42:46.310Z,33.26
2023-01-22T03:45:14.075Z,33.30
2023-01-22T03:47:41.797Z,33.61
2023-01-22T03:50:10.544Z,33.91
2023-01-22T03:52:39.765Z,34.54
2023-01-22T03:55:09.347Z,33.97
2023-01-22T03:57:38.135Z,33.29
2023-01-22T04:00:07.840Z,32.87
2023-01-22T04:02:35.664Z,32.86
2023-01-22T04:05:04.136Z,32.97
2023-01-22T04:07:32.218Z,33.03
2023-01-22T04:09:59.905Z,32.91
2023-01-22T04:12:27.595Z,32.95
2023-01-22T04:14:55.364Z,32.93
2023-01-22T04:17:26.299Z,32.98
2023-01-22T04:19:54.507Z,34.00
2023-01-22T04:22:22.488Z,34.14
2023-01-22T04:24:50.524Z,33.07
2023-01-22T04:27:18.967Z,32.45
2023-01-22T04:29:46.648Z,32.54
2023-01-22T04:32:14.405Z,32.84
2023-01-22T04:34:42.932Z,33.47
2023-01-22T04:37:10.683Z,33.54
2023-01-22T04:39:38.544Z,34.35
2023-01-22T04:42:06.300Z,34.86
2023-01-22T04:44:34.581Z,35.87
2023-01-22T04:47:02.526Z,36.47
2023-01-22T04:49:30.517Z,34.88
2023-01-22T04:51:58.749Z,34.37
2023-01-22T04:54:26.578Z,34.24
2023-01-22T04:56:55.552Z,34.61
2023-01-22T04:59:23.299Z,34.94
2023-01-22T05:01:51.232Z,34.74
2023-01-22T05:04:21.892Z,34.46
2023-01-22T05:06:50.515Z,34.53
2023-01-22T05:09:18.768Z,35.05
2023-01-22T05:11:46.534Z,35.44
2023-01-22T05:14:14.703Z,34.48
2023-01-22T05:16:43.216Z,33.95
2023-01-22T05:19:11.076Z,33.71
2023-01-22T05:21:38.977Z,33.96
2023-01-22T05:24:09.053Z,33.42
2023-01-22T05:26:36.960Z,34.65
2023-01-22T05:29:06.849Z,34.00
2023-01-22T05:31:37.202Z,33.60
2023-01-22T05:34:05.251Z,33.68
2023-01-22T05:36:33.220Z,34.30
2023-01-22T05:39:01.925Z,34.05
2023-01-22T05:41:29.638Z,34.39
2023-01-22T05:43:57.437Z,35.25
2023-01-22T05:46:25.209Z,35.63
2023-01-22T05:48:53.174Z,36.84
2023-01-22T05:51:20.927Z,36.07
2023-01-22T05:53:48.717Z,35.23
2023-01-22T05:56:18.304Z,35.17
2023-01-22T05:58:46.045Z,34.85
2023-01-22T06:01:14.459Z,35.52
2023-01-22T06:03:43.972Z,35.58
2023-01-22T06:06:14.982Z,35.90
2023-01-22T06:08:42.706Z,35.76
2023-01-22T06:11:14.823Z,35.77
2023-01-22T06:13:43.421Z,35.47
2023-01-22T06:16:11.282Z,34.70
2023-01-22T06:18:41.645Z,34.36
2023-01-22T06:21:10.234Z,34.80
2023-01-22T06:23:38.280Z,34.63
2023-01-22T06:26:06.349Z,34.92
2023-01-22T06:28:34.156Z,35.36
2023-01-22T06:31:07.710Z,35.81
2023-01-22T06:33:37.635Z,35.55
2023-01-22T06:36:09.148Z,34.97
2023-01-22T06:38:37.855Z,34.53
2023-01-22T06:41:05.768Z,35.05
2023-01-22T06:43:34.027Z,35.01
2023-01-22T06:46:04.480Z,35.00
2023-01-22T06:48:32.717Z,35.05
2023-01-22T06:51:01.503Z,35.10
2023-01-22T06:53:29.488Z,35.60
2023-01-22T06:56:00.210Z,35.77
2023-01-22T06:58:28.920Z,35.53
2023-01-22T07:01:03.751Z,35.09
2023-01-22T07:03:32.098Z,35.18
2023-01-22T07:06:04.115Z,34.74
2023-01-22T07:08:33.677Z,34.76
2023-01-22T07:11:02.490Z,34.35
2023-01-22T07:13:30.631Z,34.31
2023-01-22T07:16:06.390Z,34.06
2023-01-22T07:18:34.172Z,33.64
2023-01-22T07:21:06.513Z,33.96
2023-01-22T07:23:34.780Z,35.16
2023-01-22T07:26:02.659Z,35.54
2023-01-22T07:28:30.404Z,35.82
2023-01-22T07:30:58.590Z,36.49
2023-01-22T07:33:26.487Z,37.02
2023-01-22T07:35:56.719Z,38.01
2023-01-22T07:38:27.648Z,37.37
2023-01-22T07:41:14.145Z,37.97
2023-01-22T07:43:44.919Z,37.59
2023-01-22T07:46:12.609Z,36.52
2023-01-22T07:48:40.421Z,35.79
2023-01-22T07:51:10.619Z,36.65
2023-01-22T07:53:40.287Z,35.90
2023-01-22T07:56:09.170Z,36.22
2023-01-22T07:58:41.347Z,37.48
2023-01-22T08:01:11.416Z,37.56
2023-01-22T08:03:40.025Z,35.73
2023-01-22T08:06:16.043Z,35.64
2023-01-22T08:08:43.900Z,36.00
2023-01-22T08:11:12.994Z,35.33
2023-01-22T08:13:41.732Z,35.45
2023-01-22T08:16:09.969Z,36.01
2023-01-22T08:18:37.807Z,35.79
2023-01-22T08:21:08.463Z,35.20
2023-01-22T08:23:36.914Z,35.46
2023-01-22T08:26:05.188Z,36.12
2023-01-22T08:28:32.952Z,36.91
2023-01-22T08:31:03.618Z,37.84
2023-01-22T08:33:33.675Z,36.40
2023-01-22T08:36:01.635Z,36.50
2023-01-22T08:38:29.805Z,39.73
2023-01-22T08:40:58.107Z,40.62
2023-01-22T08:43:25.823Z,39.27
2023-01-22T08:45:53.548Z,37.91
2023-01-22T08:48:22.257Z,37.26
2023-01-22T08:50:50.326Z,37.46
2023-01-22T08:53:18.156Z,37.30
2023-01-22T08:55:50.564Z,38.58
2023-01-22T08:58:20.523Z,37.96
2023-01-22T09:00:49.345Z,38.23
2023-01-22T09:03:18.155Z,37.91
2023-01-22T09:05:48.351Z,36.60
2023-01-22T09:08:18.635Z,36.19
2023-01-22T09:10:46.613Z,37.00
2023-01-22T09:13:14.566Z,36.12
2023-01-22T09:15:42.415Z,35.32
2023-01-22T09:18:10.181Z,36.82
2023-01-22T09:20:38.404Z,37.03
2023-01-22T09:23:07.132Z,36.45
2023-01-22T09:25:34.912Z,35.97
2023-01-22T09:28:07.448Z,35.70
2023-01-22T09:30:39.514Z,35.04
2023-01-22T09:33:08.266Z,34.55
2023-01-22T09:35:36.105Z,35.04
2023-01-22T09:38:06.213Z,35.16
2023-01-22T09:41:02.571Z,34.53
2023-01-22T09:43:41.366Z,35.25
2023-01-22T09:46:19.958Z,36.16
2023-01-22T09:48:56.615Z,37.25
2023-01-22T09:51:27.552Z,37.37
2023-01-22T09:54:02.159Z,36.55
2023-01-22T09:56:44.302Z,37.07
2023-01-22T09:59:19.513Z,36.03
2023-01-22T10:01:58.381Z,34.94
2023-01-22T10:04:43.456Z,34.91
2023-01-22T10:07:23.953Z,34.73
2023-01-22T10:09:57.925Z,34.79
2023-01-22T10:12:30.194Z,34.87
2023-01-22T10:14:58.579Z,34.56
2023-01-22T10:17:34.782Z,34.46
2023-01-22T10:20:06.995Z,33.99
2023-01-22T10:22:35.600Z,34.35
2023-01-22T10:25:03.749Z,34.92
2023-01-22T10:27:39.782Z,34.61
2023-01-22T10:30:27.598Z,34.43
2023-01-22T10:33:00.037Z,34.25
2023-01-22T10:35:31.973Z,33.71
2023-01-22T10:38:03.777Z,33.30
2023-01-22T10:40:41.051Z,33.52
2023-01-22T10:43:15.001Z,34.26
2023-01-22T10:45:56.007Z,34.85
2023-01-22T10:48:25.993Z,34.45
2023-01-22T10:51:19.613Z,34.24
2023-01-22T10:53:56.187Z,33.65
2023-01-22T10:56:35.567Z,33.08
2023-01-22T10:59:23.456Z,32.73
2023-01-22T11:02:03.540Z,31.96
2023-01-22T11:04:33.672Z,31.81
2023-01-22T11:07:26.407Z,31.96
2023-01-22T11:10:10.494Z,31.66
2023-01-22T11:12:46.656Z,31.83
2023-01-22T11:15:38.752Z,32.18
2023-01-22T11:18:11.823Z,32.56
2023-01-22T11:20:57.611Z,32.84
2023-01-22T11:23:58.925Z,33.38
2023-01-22T11:26:54.346Z,33.17
2023-01-22T11:29:56.363Z,33.73
2023-01-22T11:32:45.987Z,33.77
2023-01-22T11:35:27.983Z,32.98
2023-01-22T11:38:46.324Z,33.06
2023-01-22T11:42:25.724Z,33.42
2023-01-22T11:45:23.278Z,34.99
2023-01-22T11:48:24.067Z,34.32
2023-01-22T11:51:03.569Z,33.77
2023-01-22T11:53:59.041Z,33.46
2023-01-22T11:57:00.391Z,33.12
2023-01-22T11:59:53.806Z,34.63
2023-01-22T12:02:52.172Z,35.69
2023-01-22T12:05:47.688Z,35.70
2023-01-22T12:09:01.129Z,34.63
2023-01-22T12:11:56.518Z,32.32
2023-01-22T12:14:58.583Z,32.97
2023-01-22T12:17:48.082Z,34.05
2023-01-22T12:20:36.899Z,34.76
2023-01-22T12:23:20.612Z,34.62
2023-01-22T12:25:53.013Z,34.35
2023-01-22T12:28:45.160Z,33.72
2023-01-22T12:31:22.162Z,32.84
2023-01-22T12:33:51.046Z,33.42
2023-01-22T12:36:24.137Z,33.51
2023-01-22T12:39:27.445Z,33.17
2023-01-22T12:42:32.816Z,32.83
2023-01-22T12:45:33.511Z,32.46
2023-01-22T12:48:48.786Z,32.64
2023-01-22T12:51:47.285Z,33.42
2023-01-22T12:54:37.188Z,32.85
2023-01-22T12:57:23.119Z,32.32
2023-01-22T12:59:57.864Z,31.31
2023-01-22T13:02:29.518Z,31.99
2023-01-22T13:05:21.743Z,32.33
2023-01-22T13:08:22.639Z,32.41
2023-01-22T13:10:57.501Z,33.03
2023-01-22T13:13:38.239Z,34.02
2023-01-22T13:16:15.610Z,34.40
2023-01-22T13:18:52.548Z,33.59
2023-01-22T13:21:34.422Z,32.83
2023-01-22T13:24:17.278Z,33.25
2023-01-22T13:26:59.993Z,31.98
2023-01-22T13:29:33.082Z,31.65
2023-01-22T13:32:06.716Z,31.36
2023-01-22T13:34:34.696Z,31.78
2023-01-22T13:37:02.472Z,33.54
2023-01-22T13:39:34.120Z,33.60
2023-01-22T13:42:05.283Z,32.84
2023-01-22T13:44:39.081Z,33.10
2023-01-22T13:47:07.982Z,32.85
2023-01-22T13:49:43.380Z,33.25
2023-01-22T13:52:18.292Z,33.63
2023-01-22T13:55:16.712Z,33.49
2023-01-22T13:57:54.822Z,33.08
2023-01-22T14:00:26.092Z,33.57
2023-01-22T14:02:54.425Z,33.64
2023-01-22T14:05:27.399Z,33.99
2023-01-22T14:08:10.061Z,33.48
2023-01-22T14:10:41.451Z,32.97
2023-01-22T14:13:15.581Z,32.91
2023-01-22T14:16:01.676Z,33.49
2023-01-22T14:18:32.150Z,34.37
2023-01-22T14:21:00.215Z,34.30
2023-01-22T14:23:30.141Z,34.22
2023-01-22T14:26:03.486Z,34.22
2023-01-22T14:28:34.289Z,34.08
2023-01-22T14:31:03.305Z,34.00
2023-01-22T14:33:37.320Z,33.33
2023-01-22T14:36:06.118Z,33.19
2023-01-22T14:38:33.965Z,32.69
2023-01-22T14:41:07.138Z,31.97
2023-01-22T14:43:39.412Z,31.41
2023-01-22T14:46:08.906Z,31.86
2023-01-22T14:48:38.662Z,32.26
2023-01-22T14:51:13.815Z,32.33
2023-01-22T14:53:42.053Z,32.15
2023-01-22T14:56:09.857Z,32.80
2023-01-22T14:58:39.255Z,33.09
2023-01-22T15:01:22.684Z,33.16
2023-01-22T15:03:52.549Z,32.74
2023-01-22T15:06:20.829Z,32.59
2023-01-22T15:08:48.702Z,33.34
2023-01-22T15:11:18.534Z,33.91
2023-01-22T15:13:46.403Z,35.66
2023-01-22T15:16:15.415Z,36.43
2023-01-22T15:18:43.510Z,36.72
2023-01-22T15:21:12.239Z,36.37
2023-01-22T15:23:41.399Z,36.15
2023-01-22T15:26:28.969Z,36.58
2023-01-22T15:28:57.427Z,37.50
2023-01-22T15:31:25.439Z,36.91
2023-01-22T15:33:53.630Z,37.47
2023-01-22T15:36:21.483Z,37.30
2023-01-22T15:38:50.008Z,36.83
2023-01-22T15:41:33.083Z,36.83
2023-01-22T15:44:05.293Z,36.36
2023-01-22T15:46:37.812Z,36.13
2023-01-22T15:49:08.609Z,36.38
2023-01-22T15:51:36.965Z,35.00
2023-01-22T15:54:07.697Z,34.57
2023-01-22T15:56:37.911Z,35.31
2023-01-22T15:59:06.858Z,35.09
2023-01-22T16:01:35.543Z,35.64
2023-01-22T16:04:05.072Z,36.02
2023-01-22T16:06:34.944Z,35.61
2023-01-22T16:09:06.414Z,35.52
2023-01-22T16:11:35.684Z,35.29
2023-01-22T16:14:04.337Z,34.98
2023-01-22T16:16:36.869Z,35.35
2023-01-22T16:19:07.881Z,35.98
2023-01-22T16:21:36.604Z,36.05
2023-01-22T16:24:05.565Z,35.67
2023-01-22T16:26:35.642Z,36.03
2023-01-22T16:29:06.363Z,36.37
2023-01-22T16:31:36.550Z,36.24
2023-01-22T16:34:12.671Z,35.30
2023-01-22T16:36:43.269Z,34.71
2023-01-22T16:39:19.489Z,35.05
2023-01-22T16:41:50.577Z,36.04
2023-01-22T16:44:26.502Z,36.31
2023-01-22T16:46:57.766Z,36.69
2023-01-22T16:49:31.855Z,36.12
2023-01-22T16:52:20.836Z,35.35
2023-01-22T16:54:52.137Z,34.71
2023-01-22T16:57:20.306Z,34.31
2023-01-22T16:59:48.601Z,34.13
2023-01-22T17:02:19.537Z,34.31
2023-01-22T17:04:47.812Z,34.04
2023-01-22T17:07:32.350Z,34.23
2023-01-22T17:10:01.387Z,33.98
2023-01-22T17:12:29.512Z,34.71
2023-01-22T17:14:58.383Z,34.90
2023-01-22T17:17:27.965Z,34.51
2023-01-22T17:19:55.783Z,34.37
2023-01-22T17:22:25.335Z,34.10
2023-01-22T17:24:53.163Z,34.04
2023-01-22T17:27:22.172Z,33.77
2023-01-22T17:29:51.595Z,32.63
2023-01-22T17:32:20.877Z,32.30
2023-01-22T17:34:50.564Z,32.40
2023-01-22T17:37:18.556Z,33.20
2023-01-22T17:39:51.070Z,32.85
2023-01-22T17:42:27.183Z,33.80
2023-01-22T17:45:03.111Z,34.22
2023-01-22T17:47:30.785Z,34.06
2023-01-22T17:50:00.391Z,35.88
2023-01-22T17:52:29.819Z,37.07
2023-01-22T17:54:57.789Z,35.54
2023-01-22T17:57:27.923Z,35.06
2023-01-22T17:59:55.653Z,34.19
2023-01-22T18:02:23.840Z,33.05
2023-01-22T18:04:52.103Z,32.50
2023-01-22T18:07:19.933Z,32.19
2023-01-22T18:09:48.399Z,32.30
2023-01-22T18:12:16.355Z,32.91
2023-01-22T18:14:44.549Z,33.83
2023-01-22T18:17:12.403Z,35.21
2023-01-22T18:19:40.443Z,35.47
2023-01-22T18:22:09.254Z,34.87
2023-01-22T18:24:37.080Z,35.32
2023-01-22T18:27:07.156Z,36.15
2023-01-22T18:29:35.410Z,35.86
2023-01-22T18:32:05.455Z,36.81
2023-01-22T18:34:34.237Z,37.27
2023-01-22T18:37:05.550Z,37.51
2023-01-22T18:39:33.448Z,38.55
2023-01-22T18:42:01.705Z,37.34
2023-01-22T18:44:29.591Z,37.20
2023-01-22T18:46:59.350Z,36.89
2023-01-22T18:49:28.211Z,36.91
2023-01-22T18:52:01.097Z,37.20
2023-01-22T18:54:30.766Z,37.32
2023-01-22T18:56:58.866Z,37.65
2023-01-22T18:59:26.611Z,36.33
2023-01-22T19:01:54.544Z,35.73
2023-01-22T19:04:23.826Z,35.13
2023-01-22T19:06:55.151Z,34.92
2023-01-22T19:09:27.141Z,35.21
2023-01-22T19:11:55.878Z,34.97
2023-01-22T19:14:24.067Z,34.84
2023-01-22T19:16:53.716Z,34.75
2023-01-22T19:19:23.361Z,35.10
2023-01-22T19:21:55.410Z,36.34
2023-01-22T19:24:33.019Z,35.78
2023-01-22T19:27:06.264Z,35.77
2023-01-22T19:29:34.127Z,35.15
2023-01-22T19:32:01.905Z,35.01
2023-01-22T19:34:30.577Z,35.19
2023-01-22T19:37:06.702Z,34.69
2023-01-22T19:39:35.787Z,34.45
2023-01-22T19:42:06.947Z,34.69
2023-01-22T19:44:40.187Z,34.61
2023-01-22T19:47:10.109Z,34.46
2023-01-22T19:49:38.321Z,34.63
2023-01-22T19:52:07.536Z,35.45
2023-01-22T19:54:40.667Z,35.98
2023-01-22T19:57:09.535Z,37.45
2023-01-22T19:59:37.953Z,40.18
2023-01-22T20:02:14.221Z,41.93
2023-01-22T20:04:42.194Z,39.78
2023-01-22T20:07:10.764Z,39.16
2023-01-22T20:09:39.218Z,37.80
2023-01-22T20:12:09.349Z,37.83
2023-01-22T20:14:43.608Z,37.32
2023-01-22T20:17:13.098Z,37.39
2023-01-22T20:19:44.119Z,37.80
2023-01-22T20:22:12.289Z,36.70
2023-01-22T20:24:42.002Z,37.30
2023-01-22T20:27:11.138Z,36.84
2023-01-22T20:29:40.811Z,37.29
2023-01-22T20:32:11.477Z,36.67
2023-01-22T20:34:42.272Z,35.36
2023-01-22T20:37:11.483Z,34.00
2023-01-22T20:39:39.216Z,33.41
2023-01-22T20:42:07.301Z,33.53
2023-01-22T20:44:36.325Z,32.99
2023-01-22T20:47:04.590Z,31.73
2023-01-22T20:49:33.497Z,31.01
2023-01-22T20:52:01.442Z,30.45
2023-01-22T20:54:30.775Z,29.68
2023-01-22T20:56:59.220Z,29.78
2023-01-22T20:59:28.738Z,30.62
2023-01-22T21:01:58.711Z,31.69
2023-01-22T21:04:26.791Z,32.85
2023-01-22T21:06:56.938Z,35.57
2023-01-22T21:09:24.844Z,36.22
2023-01-22T21:11:53.804Z,35.50
2023-01-22T21:14:21.594Z,36.47
2023-01-22T21:16:50.175Z,35.75
2023-01-22T21:19:24.471Z,35.73
2023-01-22T21:21:53.587Z,35.72
2023-01-22T21:24:22.163Z,34.56
2023-01-22T21:26:51.162Z,35.51
2023-01-22T21:29:24.417Z,35.61
2023-01-22T21:31:54.154Z,35.19
2023-01-22T21:34:25.715Z,34.99
2023-01-22T21:36:55.196Z,34.16
2023-01-22T21:39:31.930Z,32.94
2023-01-22T21:42:19.824Z,32.33
2023-01-22T21:45:07.894Z,32.37
2023-01-22T21:47:36.638Z,34.18
2023-01-22T21:50:07.619Z,35.47
2023-01-22T21:52:36.202Z,36.18
2023-01-22T21:55:05.197Z,35.18
2023-01-22T21:57:39.927Z,34.28
2023-01-22T22:00:09.514Z,34.35
2023-01-22T22:02:39.063Z,35.41
2023-01-22T22:05:07.977Z,35.50
2023-01-22T22:07:35.843Z,35.33
2023-01-22T22:10:05.013Z,34.94
2023-01-22T22:12:32.793Z,34.32
2023-01-22T22:15:00.690Z,33.81
2023-01-22T22:17:28.353Z,33.93
2023-01-22T22:19:57.216Z,34.34
2023-01-22T22:22:24.949Z,34.08
2023-01-22T22:24:54.149Z,35.15
2023-01-22T22:27:22.059Z,36.16
2023-01-22T22:29:53.877Z,36.30
2023-01-22T22:32:29.366Z,34.55
2023-01-22T22:34:59.272Z,33.26
2023-01-22T22:37:27.314Z,33.60
2023-01-22T22:39:55.084Z,34.94
2023-01-22T22:42:23.016Z,36.27
2023-01-22T22:44:50.815Z,36.28
2023-01-22T22:47:18.501Z,35.28
2023-01-22T22:49:47.431Z,34.41
2023-01-22T22:52:15.745Z,35.44
2023-01-22T22:54:43.440Z,36.14
2023-01-22T22:57:11.380Z,35.41
2023-01-22T22:59:41.465Z,34.51
2023-01-22T23:02:10.277Z,33.69
2023-01-22T23:04:38.473Z,33.22
2023-01-22T23:07:06.265Z,32.46
2023-01-22T23:09:34.077Z,32.04
2023-01-22T23:12:03.759Z,32.55
2023-01-22T23:14:32.536Z,32.20
2023-01-22T23:17:00.485Z,32.12
2023-01-22T23:19:28.910Z,32.22
2023-01-22T23:22:00.038Z,33.34
2023-01-22T23:24:28.863Z,34.50
2023-01-22T23:26:57.183Z,34.17
2023-01-22T23:29:27.015Z,34.24
2023-01-22T23:31:56.402Z,33.62
2023-01-22T23:34:25.712Z,33.84
2023-01-22T23:36:53.446Z,34.18
2023-01-22T23:39:22.341Z,34.67
2023-01-22T23:41:50.428Z,34.84
2023-01-22T23:44:18.394Z,34.89
2023-01-22T23:46:46.414Z,33.88
2023-01-22T23:49:14.594Z,33.52
2023-01-22T23:51:44.336Z,32.99
2023-01-22T23:54:12.647Z,32.99
2023-01-22T23:56:40.614Z,32.72
2023-01-22T23:59:12.588Z,31.71
